Aviation Digital Data Service (ADDS)

Output produced by METARs form (0751 UTC 18 November 2018)
found at http://www.aviationweather.gov/metar/data/
 
METAR text: RJOO 180700Z 22004KT 190V250 9999 FEW030 SCT130 BKN/// 18/01 Q1016 RMK 1CU030 3AC130 A3001
Conditions at: RJOO (OSAKA INTL/ITAMI, JP) observed 0700 UTC 18 November 2018
Temperature: 18.0°C (64°F)
Dewpoint: 1.0°C (34°F) [RH = 32%]
Pressure (altimeter): 30.00 inches Hg (1016.0 mb)
Winds: from the SW (220 degrees) at 5 MPH (4 knots; 2.1 m/s)
Visibility: 6 or more miles (10+ km)
Ceiling: at least 12,000 feet AGL
Clouds: few clouds at 3000 feet AGL
scattered clouds at 13000 feet AGL
Weather: no significant weather observed at this time

Forecast for: RJOO (OSAKA INTL/ITAMI, JP)
Text: TAF RJOO 180509Z 1806/1912 32005KT 9999 FEW030
Forecast period: 0600 UTC 18 November 2018 to 1200 UTC 19 November 2018
Forecast type: FROM: standard forecast or significant change
Winds: from the NW (320 degrees) at 6 MPH (5 knots; 2.6 m/s)
Visibility: 6 or more miles 10+ km)
Ceiling: at least 12,000 feet AGL
Clouds: few clouds at 3000 feet AGL
Weather: no significant weather forecast for this period
Text: TEMPO 1818/1821 4000 SHRA BR
Forecast period: 1800 to 2100 UTC 18 November 2018
Forecast type: TEMPORARY: The following changes expected for less than half the time period
Visibility: 2.49 miles (4.01 km)
Ceiling: unknown
Clouds: missing
Weather: SHRA BR  (rain showers, mist)